Time;durP1;ratioP1;P1;durP2;ratioP2;P2;SDS_P1;SDS_P2;PMS_P1;PMS_P2;Temp;Humidity;BMP_temperature;BMP_pressure;BME280_temperature;BME280_humidity;BME280_pressure;Samples;Min_cycle;Max_cycle;Signal;HPM_P1;HPM_P2
2022/04/11 00:01:03;;;;;;;;;6.33;6.33;;;;;11.17;44.08;100747.00;5054962;28;45453;-63
2022/04/11 00:03:29;;;;;;;;;8.00;8.00;;;;;11.15;43.22;100746.22;5053822;28;47259;-62
2022/04/11 00:05:55;;;;;;;;;5.00;5.00;;;;;11.16;44.06;100747.91;5055254;28;45531;-64
2022/04/11 00:08:21;;;;;;;;;6.67;6.67;;;;;11.13;43.62;100739.28;5055204;28;45477;-65
2022/04/11 00:10:47;;;;;;;;;5.00;5.00;;;;;11.13;43.82;100740.13;5055273;28;45473;-61
2022/04/11 00:13:12;;;;;;;;;5.00;5.00;;;;;11.10;43.75;100742.88;5054972;28;45580;-65
2022/04/11 00:15:40;;;;;;;;;6.33;6.33;;;;;11.11;43.61;100744.59;5055076;28;45423;-64
2022/04/11 00:18:06;;;;;;;;;7.00;7.00;;;;;11.09;43.93;100753.44;5055004;28;45422;-63
2022/04/11 00:20:32;;;;;;;;;8.67;8.67;;;;;11.04;43.81;100738.69;5054895;28;45376;-64
2022/04/11 00:22:57;;;;;;;;;8.67;8.67;;;;;11.04;44.33;100737.81;5054950;28;45524;-65
2022/04/11 00:25:23;;;;;;;;;5.00;4.00;;;;;11.04;44.14;100738.69;5054832;28;45467;-65
2022/04/11 00:27:49;;;;;;;;;6.00;6.00;;;;;11.03;44.54;100736.09;5055138;28;45374;-65
2022/04/11 00:30:14;;;;;;;;;6.33;5.00;;;;;10.95;44.65;100723.19;5054871;28;45596;-63
2022/04/11 00:32:41;;;;;;;;;7.00;7.00;;;;;10.93;44.33;100711.00;5055016;28;45935;-62
2022/04/11 00:35:08;;;;;;;;;7.00;5.67;;;;;10.97;44.41;100720.53;5055332;28;45450;-64
2022/04/11 00:37:34;;;;;;;;;6.00;5.00;;;;;10.95;44.86;100711.81;5054820;28;45304;-65
2022/04/11 00:40:00;;;;;;;;;4.00;4.00;;;;;10.87;44.91;100698.94;5055017;28;45398;-62
2022/04/11 00:42:28;;;;;;;;;4.33;4.33;;;;;10.89;44.63;100689.22;5054431;28;45457;-61
2022/04/11 00:44:53;;;;;;;;;8.33;8.00;;;;;10.92;45.01;100691.75;5054803;28;45477;-61
2022/04/11 00:47:19;;;;;;;;;5.00;5.00;;;;;10.88;44.92;100681.38;5054709;28;45547;-61
2022/04/11 00:49:46;;;;;;;;;5.00;5.00;;;;;10.91;44.85;100686.50;5053525;28;45540;-63
2022/04/11 00:52:12;;;;;;;;;7.00;7.00;;;;;10.90;44.84;100690.06;5052833;28;46492;-63
2022/04/11 00:54:40;;;;;;;;;4.67;4.67;;;;;10.82;44.68;100678.03;5054553;28;45579;-65
2022/04/11 00:57:05;;;;;;;;;5.00;4.33;;;;;10.79;45.19;100667.63;5054685;28;45393;-64
2022/04/11 00:59:31;;;;;;;;;6.67;4.67;;;;;10.79;45.47;100669.41;5055978;28;45435;-62
2022/04/11 01:01:56;;;;;;;;;7.00;5.00;;;;;10.78;44.88;100675.59;5057859;28;46271;-65
2022/04/11 01:04:26;;;;;;;;;4.33;4.00;;;;;10.75;44.98;100665.19;5057898;28;45425;-64
2022/04/11 01:06:54;;;;;;;;;5.00;5.00;;;;;10.67;45.16;100649.66;5071182;28;45607;-65
2022/04/11 01:09:19;;;;;;;;;4.00;4.00;;;;;10.71;44.25;100656.50;5078030;28;45477;-65
2022/04/11 01:11:45;;;;;;;;;5.00;5.00;;;;;10.69;44.88;100653.06;5077909;27;46068;-65
2022/04/11 01:14:10;;;;;;;;;4.00;4.00;;;;;10.70;45.04;100643.44;5077842;28;45338;-65
2022/04/11 01:16:36;;;;;;;;;5.33;5.33;;;;;10.70;45.51;100633.75;5078285;27;45389;-65
2022/04/11 01:19:01;;;;;;;;;9.00;8.00;;;;;10.63;45.62;100629.63;5077981;27;45622;-65
2022/04/11 01:21:28;;;;;;;;;6.33;6.33;;;;;10.67;45.20;100636.50;5077852;27;45398;-63
2022/04/11 01:23:53;;;;;;;;;5.00;5.00;;;;;10.58;44.76;100626.28;5077992;27;45499;-66
2022/04/11 01:26:22;;;;;;;;;6.00;6.00;;;;;10.60;45.58;100621.84;5077939;27;45456;-64
2022/04/11 01:28:48;;;;;;;;;5.67;5.67;;;;;10.57;44.98;100619.31;5078158;27;45631;-62
2022/04/11 01:31:15;;;;;;;;;4.00;4.00;;;;;10.55;45.15;100621.13;5077757;27;46566;-63
2022/04/11 01:33:42;;;;;;;;;7.00;6.33;;;;;10.54;45.35;100619.44;5077592;28;45411;-63
2022/04/11 01:36:07;;;;;;;;;2.33;2.33;;;;;10.57;45.25;100612.28;5077837;27;45391;-64
2022/04/11 01:38:32;;;;;;;;;5.00;5.00;;;;;10.58;45.42;100610.50;5077819;27;45476;-63
2022/04/11 01:40:58;;;;;;;;;5.67;5.67;;;;;10.55;45.68;100600.09;5077745;27;45747;-64
2022/04/11 01:43:24;;;;;;;;;5.00;5.00;;;;;10.54;45.47;100608.91;5077594;27;45535;-62
2022/04/11 01:45:50;;;;;;;;;5.00;5.00;;;;;10.53;45.36;100601.91;5077986;27;45487;-62
2022/04/11 01:48:16;;;;;;;;;5.00;5.00;;;;;10.49;45.48;100601.19;5077723;27;45396;-63
2022/04/11 01:50:42;;;;;;;;;4.00;4.00;;;;;10.50;45.67;100594.16;5077409;28;45494;-66
2022/04/11 01:53:10;;;;;;;;;6.50;6.50;;;;;10.51;45.63;100590.63;5077375;27;45409;-65
2022/04/11 01:55:35;;;;;;;;;7.67;6.33;;;;;10.52;45.06;100589.69;5077627;27;45372;-63
2022/04/11 01:58:03;;;;;;;;;7.00;7.00;;;;;10.50;45.06;100588.88;5077540;27;45352;-64
2022/04/11 02:00:28;;;;;;;;;4.33;4.33;;;;;10.50;44.52;100586.25;5077239;28;45626;-66
2022/04/11 02:02:53;;;;;;;;;7.00;6.33;;;;;10.49;44.45;100585.41;5077182;27;46863;-64
2022/04/11 02:05:19;;;;;;;;;4.50;3.75;;;;;10.51;44.40;100583.59;5077566;27;45426;-68
2022/04/11 02:07:44;;;;;;;;;4.33;4.00;;;;;10.51;44.54;100586.22;5077365;27;45550;-66
2022/04/11 02:10:10;;;;;;;;;4.33;4.33;;;;;10.43;44.68;100574.25;5076476;27;46263;-60
2022/04/11 02:12:35;;;;;;;;;4.00;4.00;;;;;10.43;44.42;100576.88;5077200;28;45565;-63
2022/04/11 02:15:00;;;;;;;;;4.33;4.33;;;;;10.45;44.59;100573.28;5077588;27;45485;-66
2022/04/11 02:17:26;;;;;;;;;4.00;4.00;;;;;10.41;44.13;100566.41;5077374;27;45492;-62
2022/04/11 02:19:51;;;;;;;;;4.00;4.00;;;;;10.46;44.43;100571.50;5077185;27;46124;-63
2022/04/11 02:22:16;;;;;;;;;3.67;3.67;;;;;10.36;44.48;100563.09;5076922;27;45464;-62
2022/04/11 02:24:42;;;;;;;;;5.00;3.67;;;;;10.37;43.98;100564.81;5077221;27;45501;-65
2022/04/11 02:27:07;;;;;;;;;5.00;5.00;;;;;10.37;44.08;100554.31;5077149;27;45575;-62
2022/04/11 02:29:32;;;;;;;;;3.67;3.67;;;;;10.38;43.80;100556.84;5076592;28;47109;-61
2022/04/11 02:31:57;;;;;;;;;5.00;3.00;;;;;10.36;43.86;100557.81;5076827;27;48455;-62
2022/04/11 02:34:25;;;;;;;;;4.00;4.00;;;;;10.28;43.97;100544.94;5075725;27;45444;-65
2022/04/11 02:36:50;;;;;;;;;3.00;3.00;;;;;10.33;44.08;100558.78;5077012;27;45520;-63
2022/04/11 02:39:16;;;;;;;;;5.00;5.00;;;;;10.10;43.81;100540.28;5076759;27;45804;-64
2022/04/11 02:41:41;;;;;;;;;4.00;4.00;;;;;10.15;44.17;100548.88;5076924;27;45415;-64
2022/04/11 02:44:06;;;;;;;;;5.00;5.00;;;;;10.15;44.04;100543.63;5077021;27;45382;-63
2022/04/11 02:46:32;;;;;;;;;3.00;3.00;;;;;10.18;44.21;100548.75;5076900;27;45647;-61
2022/04/11 02:48:58;;;;;;;;;3.33;3.33;;;;;10.20;43.84;100543.47;5076523;28;45463;-64
2022/04/11 02:51:23;;;;;;;;;4.00;4.00;;;;;10.18;43.91;100540.88;5076481;27;45470;-64
2022/04/11 02:53:49;;;;;;;;;4.67;4.67;;;;;10.19;43.92;100537.34;5076814;27;45436;-65
2022/04/11 02:56:14;;;;;;;;;4.67;3.00;;;;;10.20;43.71;100527.69;5076628;27;45573;-62
2022/04/11 02:58:39;;;;;;;;;3.67;3.67;;;;;9.97;43.94;100489.94;5076555;27;46230;-65
2022/04/11 03:01:05;;;;;;;;;6.33;4.00;;;;;10.10;43.64;100517.53;5076376;27;45417;-63
2022/04/11 03:03:30;;;;;;;;;3.00;3.00;;;;;9.99;44.15;100508.28;5075553;28;45487;-64
2022/04/11 03:05:55;;;;;;;;;4.00;3.00;;;;;9.95;44.35;100502.28;5076677;27;45473;-62
2022/04/11 03:08:20;;;;;;;;;2.33;1.67;;;;;9.92;44.20;100499.75;5074917;28;45383;-63
2022/04/11 03:10:46;;;;;;;;;3.00;3.00;;;;;9.99;44.08;100495.13;5076344;27;45459;-67
2022/04/11 03:13:11;;;;;;;;;4.50;4.50;;;;;10.03;43.81;100500.25;5074412;28;48900;-62
2022/04/11 03:15:37;;;;;;;;;4.50;3.00;;;;;10.07;43.46;100487.84;5076233;27;45465;-62
2022/04/11 03:18:02;;;;;;;;;3.67;3.00;;;;;10.09;43.70;100491.28;5076081;27;45401;-65
2022/04/11 03:20:28;;;;;;;;;3.33;3.33;;;;;9.99;43.76;100482.00;5076003;27;45525;-64
2022/04/11 03:22:53;;;;;;;;;3.33;3.33;;;;;10.06;43.62;100489.63;5075331;27;45505;-64
2022/04/11 03:25:18;;;;;;;;;3.67;3.67;;;;;10.06;43.50;100491.41;5076185;27;45349;-65
2022/04/11 03:27:44;;;;;;;;;7.67;5.33;;;;;10.07;43.54;100487.84;5076263;27;46071;-66
2022/04/11 03:30:10;;;;;;;;;5.00;5.00;;;;;10.01;43.46;100493.31;5076078;27;45377;-66
2022/04/11 03:32:35;;;;;;;;;4.67;4.00;;;;;9.96;43.70;100491.69;5076108;27;45484;-66
2022/04/11 03:35:01;;;;;;;;;4.00;4.00;;;;;10.02;43.87;100495.03;5075892;27;45555;-64
2022/04/11 03:37:26;;;;;;;;;3.00;3.00;;;;;10.05;43.84;100502.81;5075475;27;45371;-61
2022/04/11 03:39:51;;;;;;;;;3.00;3.00;;;;;10.02;43.55;100500.28;5075707;27;45398;-67
2022/04/11 03:42:17;;;;;;;;;5.33;3.33;;;;;10.07;43.53;100496.56;5075791;27;45528;-63
2022/04/11 03:44:42;;;;;;;;;3.67;3.67;;;;;10.07;43.37;100487.84;5075962;27;45531;-64
2022/04/11 03:47:08;;;;;;;;;5.00;3.00;;;;;9.91;43.91;100456.00;5075701;27;45838;-65
2022/04/11 03:49:33;;;;;;;;;4.00;4.00;;;;;10.07;43.69;100479.97;5074127;28;45547;-63
2022/04/11 03:51:59;;;;;;;;;4.25;4.25;;;;;10.06;43.03;100473.00;5075828;27;45492;-66
2022/04/11 03:54:24;;;;;;;;;3.25;3.25;;;;;9.94;43.50;100456.75;5074369;28;45409;-63
2022/04/11 03:56:49;;;;;;;;;2.50;2.50;;;;;10.04;43.35;100465.16;5075456;27;45592;-62
2022/04/11 03:59:15;;;;;;;;;6.00;4.00;;;;;10.03;43.72;100458.19;5075629;27;45429;-64
2022/04/11 04:01:40;;;;;;;;;6.00;6.00;;;;;10.04;43.84;100459.06;5075703;27;45528;-64
2022/04/11 04:04:06;;;;;;;;;5.33;5.33;;;;;10.04;43.71;100457.28;5075487;28;45609;-64
2022/04/11 04:06:32;;;;;;;;;2.33;2.33;;;;;10.03;43.64;100447.69;5075635;27;45395;-63
2022/04/11 04:08:57;;;;;;;;;4.00;4.00;;;;;10.02;43.77;100443.34;5075766;28;45448;-65
2022/04/11 04:11:23;;;;;;;;;6.00;4.00;;;;;10.05;43.55;100448.50;5075782;27;45428;-64
2022/04/11 04:13:48;;;;;;;;;4.00;4.00;;;;;10.07;43.53;100445.81;5075991;27;45615;-64
2022/04/11 04:16:14;;;;;;;;;3.67;3.67;;;;;10.04;43.39;100444.13;5075396;27;45899;-65
2022/04/11 04:18:39;;;;;;;;;3.00;3.00;;;;;10.01;43.57;100443.41;5075308;27;45470;-63
2022/04/11 04:21:05;;;;;;;;;7.00;5.33;;;;;10.02;43.56;100435.47;5075491;27;45447;-65
2022/04/11 04:23:30;;;;;;;;;4.00;4.00;;;;;10.03;43.66;100446.84;5075274;27;45374;-64
2022/04/11 04:25:56;;;;;;;;;4.00;4.00;;;;;10.00;43.34;100436.44;5075342;27;46119;-65
2022/04/11 04:28:21;;;;;;;;;3.67;3.67;;;;;9.97;43.47;100434.78;5075201;28;45442;-63
2022/04/11 04:30:47;;;;;;;;;3.25;3.25;;;;;9.95;43.37;100429.56;5075203;27;45318;-64
2022/04/11 04:33:12;;;;;;;;;4.00;4.00;;;;;9.80;43.39;100409.09;5076878;27;45638;-65
2022/04/11 04:35:38;;;;;;;;;4.25;3.75;;;;;9.89;43.34;100426.31;5078713;27;46963;-65
2022/04/11 04:38:06;;;;;;;;;3.00;3.00;;;;;9.87;43.54;100420.25;5078505;27;45998;-65
2022/04/11 04:40:32;;;;;;;;;3.33;3.33;;;;;9.92;43.55;100424.44;5078964;28;45423;-65
2022/04/11 04:42:57;;;;;;;;;5.00;5.00;;;;;9.92;43.64;100420.94;5078301;27;45358;-63
2022/04/11 04:45:25;;;;;;;;;4.75;4.75;;;;;9.85;43.80;100414.19;5078640;27;46135;-65
2022/04/11 04:47:51;;;;;;;;;6.50;4.00;;;;;9.84;43.44;100413.34;5079061;27;45426;-64
2022/04/11 04:50:16;;;;;;;;;4.50;3.25;;;;;9.84;43.56;100426.47;5078714;27;45442;-62
2022/04/11 04:52:41;;;;;;;;;4.75;4.75;;;;;9.84;43.74;100429.09;5078697;27;45598;-62
2022/04/11 04:55:07;;;;;;;;;6.75;3.25;;;;;9.81;43.47;100426.59;5078431;27;45431;-64
2022/04/11 04:57:33;;;;;;;;;5.00;5.00;;;;;9.85;43.75;100437.81;5078445;27;45459;-65
2022/04/11 04:59:59;;;;;;;;;6.50;4.00;;;;;9.86;43.71;100440.41;5078184;27;45614;-64
2022/04/11 05:02:24;;;;;;;;;4.00;4.00;;;;;9.85;43.53;100443.94;5078253;27;45532;-66
2022/04/11 05:04:49;;;;;;;;;5.25;4.00;;;;;9.86;43.59;100452.66;5078237;27;48633;-64
2022/04/11 05:07:15;;;;;;;;;5.50;4.00;;;;;9.86;43.67;100458.81;5078202;27;45432;-64
2022/04/11 05:09:41;;;;;;;;;4.00;2.75;;;;;9.84;43.71;100463.25;5078396;27;45471;-62
2022/04/11 05:12:07;;;;;;;;;4.75;4.75;;;;;9.86;43.88;100457.91;5078233;27;45496;-64
2022/04/11 05:14:32;;;;;;;;;3.25;3.25;;;;;9.86;43.85;100442.16;5078201;28;47534;-65
2022/04/11 05:16:57;;;;;;;;;3.75;3.75;;;;;9.92;43.50;100440.19;5077500;27;53171;-62
2022/04/11 05:19:22;;;;;;;;;4.50;4.50;;;;;9.94;43.28;100441.00;5078210;27;45396;-61
2022/04/11 05:21:48;;;;;;;;;5.50;5.25;;;;;9.99;43.61;100442.59;5077990;27;45472;-63
2022/04/11 05:24:14;;;;;;;;;6.25;5.50;;;;;9.99;43.62;100437.34;5077686;27;46005;-63
2022/04/11 05:26:39;;;;;;;;;3.00;3.00;;;;;9.98;44.21;100435.63;5078150;27;45467;-62
2022/04/11 05:29:05;;;;;;;;;5.50;4.00;;;;;10.00;43.68;100428.56;5078144;28;45457;-65
2022/04/11 05:31:30;;;;;;;;;4.00;4.00;;;;;9.95;43.78;100431.34;5077895;27;45508;-66
2022/04/11 05:33:56;;;;;;;;;4.00;4.00;;;;;9.87;43.58;100422.88;5076546;28;46264;-64
2022/04/11 05:36:21;;;;;;;;;10.00;7.25;;;;;9.89;43.71;100428.94;5077691;27;45338;-66
2022/04/11 05:38:46;;;;;;;;;6.25;6.25;;;;;9.80;43.95;100414.34;5077730;27;45356;-64
2022/04/11 05:41:14;;;;;;;;;7.50;7.00;;;;;9.84;44.11;100425.63;5077701;27;45401;-64
2022/04/11 05:43:40;;;;;;;;;7.25;7.25;;;;;9.82;43.91;100422.19;5077365;27;45525;-64
2022/04/11 05:46:05;;;;;;;;;6.50;6.50;;;;;9.76;44.19;100415.38;5076648;27;45374;-66
2022/04/11 05:48:32;;;;;;;;;3.00;3.00;;;;;9.80;44.31;100421.38;5077843;27;45434;-65
2022/04/11 05:50:59;;;;;;;;;6.50;6.50;;;;;9.82;44.48;100430.06;5077621;27;45572;-63
2022/04/11 05:53:25;;;;;;;;;7.75;5.25;;;;;9.83;43.85;100430.03;5077343;27;46077;-62
2022/04/11 05:55:50;;;;;;;;;5.00;5.00;;;;;9.83;44.05;100437.00;5077343;27;45431;-65
2022/04/11 05:58:15;;;;;;;;;7.00;7.00;;;;;9.87;44.24;100441.25;5077599;27;45396;-66
2022/04/11 06:00:41;;;;;;;;;7.25;7.25;;;;;9.90;44.15;100449.88;5077323;27;45452;-61
2022/04/11 06:03:06;;;;;;;;;4.75;4.75;;;;;9.92;44.30;100444.59;5077181;27;48314;-63
2022/04/11 06:05:31;;;;;;;;;8.25;7.00;;;;;9.92;43.98;100441.97;5077293;28;45359;-65
2022/04/11 06:07:57;;;;;;;;;8.00;7.50;;;;;9.96;43.98;100438.31;5077323;27;45442;-64
2022/04/11 06:10:22;;;;;;;;;7.50;7.00;;;;;9.98;44.20;100441.75;5077321;27;45327;-62
2022/04/11 06:12:49;;;;;;;;;5.75;4.00;;;;;10.01;44.05;100443.41;5076901;27;46075;-62
2022/04/11 06:15:17;;;;;;;;;7.50;6.75;;;;;9.99;43.54;100443.44;5077122;27;45437;-65
2022/04/11 06:17:43;;;;;;;;;5.25;5.25;;;;;9.91;43.79;100438.50;5077194;28;45419;-63
2022/04/11 06:20:09;;;;;;;;;4.00;4.00;;;;;9.90;43.65;100446.41;5076885;27;45651;-64
2022/04/11 06:22:38;;;;;;;;;5.25;5.25;;;;;9.83;44.00;100437.00;5076826;28;45966;-66
2022/04/11 06:25:05;;;;;;;;;4.75;3.75;;;;;9.87;43.88;100447.38;5077089;28;45316;-65
2022/04/11 06:27:32;;;;;;;;;6.00;6.00;;;;;9.81;43.68;100438.88;5077050;28;45407;-64
2022/04/11 06:29:58;;;;;;;;;5.00;5.00;;;;;9.87;43.72;100452.63;5077204;27;45553;-64
2022/04/11 06:32:29;;;;;;;;;5.25;5.25;;;;;9.87;44.06;100444.75;5076719;27;45576;-66
2022/04/11 06:34:54;;;;;;;;;6.00;6.00;;;;;9.87;44.23;100436.88;5075498;28;45509;-65
2022/04/11 06:37:21;;;;;;;;;6.50;6.50;;;;;9.89;44.25;100440.31;5076767;27;45883;-63
2022/04/11 06:39:46;;;;;;;;;9.75;8.00;;;;;9.92;44.15;100427.06;5075717;28;45481;-62
2022/04/11 06:42:13;;;;;;;;;7.75;7.50;;;;;9.96;43.92;100418.13;5076345;27;46027;-62
2022/04/11 06:44:38;;;;;;;;;6.00;6.00;;;;;9.99;44.50;100418.94;5076525;28;45481;-62
2022/04/11 06:47:04;;;;;;;;;10.25;10.00;;;;;10.01;44.10;100414.50;5076456;27;45385;-64
2022/04/11 06:49:30;;;;;;;;;9.00;8.75;;;;;10.01;44.18;100406.63;5076495;28;45336;-66
2022/04/11 06:51:55;;;;;;;;;8.75;8.00;;;;;10.03;43.86;100410.06;5076270;28;45397;-65
2022/04/11 06:54:21;;;;;;;;;7.50;7.50;;;;;10.09;44.08;100407.19;5076529;28;45381;-65
2022/04/11 06:56:46;;;;;;;;;8.25;8.25;;;;;10.07;43.95;100401.97;5076553;27;45473;-65
2022/04/11 06:59:12;;;;;;;;;8.25;7.00;;;;;10.10;43.47;100411.53;5076351;27;45561;-64
2022/04/11 07:01:37;;;;;;;;;5.50;5.50;;;;;10.10;43.51;100401.91;5075913;28;52077;-63
2022/04/11 07:04:03;;;;;;;;;8.00;6.50;;;;;10.08;43.77;100394.97;5076341;27;45479;-63
2022/04/11 07:06:28;;;;;;;;;7.75;7.75;;;;;10.11;43.46;100402.75;5075067;28;45377;-66
2022/04/11 07:08:54;;;;;;;;;7.00;4.75;;;;;10.13;43.83;100395.69;5075845;27;45458;-62
2022/04/11 07:11:19;;;;;;;;;8.25;7.00;;;;;10.16;44.09;100399.03;5076162;27;45431;-63
2022/04/11 07:13:45;;;;;;;;;6.00;6.00;;;;;10.18;44.25;100383.19;5076089;27;45524;-63
2022/04/11 07:16:10;;;;;;;;;7.00;7.00;;;;;10.21;43.75;100383.09;5076027;27;45422;-64
2022/04/11 07:18:36;;;;;;;;;8.50;7.25;;;;;10.27;43.83;100380.28;5076183;27;45498;-63
2022/04/11 07:21:02;;;;;;;;;8.75;8.75;;;;;10.30;43.64;100379.31;5075539;27;46210;-66
2022/04/11 07:23:27;;;;;;;;;8.00;8.00;;;;;10.27;43.76;100376.75;5075669;27;45522;-66
2022/04/11 07:25:52;;;;;;;;;7.75;7.75;;;;;10.29;43.91;100374.94;5076247;27;45417;-64
2022/04/11 07:28:18;;;;;;;;;8.00;7.00;;;;;10.31;43.96;100373.97;5075794;27;45616;-63
2022/04/11 07:30:44;;;;;;;;;5.50;5.50;;;;;10.30;43.96;100366.16;5075906;27;46997;-62
2022/04/11 07:33:10;;;;;;;;;6.25;6.00;;;;;10.20;43.83;100343.72;5075984;27;45324;-65
2022/04/11 07:35:35;;;;;;;;;6.50;6.50;;;;;10.34;43.53;100371.25;5075952;28;45501;-65
2022/04/11 07:38:01;;;;;;;;;7.00;7.00;;;;;10.36;44.00;100374.66;5075666;28;45446;-64
2022/04/11 07:40:28;;;;;;;;;8.00;6.50;;;;;10.37;43.95;100365.88;5074248;28;46768;-66
2022/04/11 07:42:53;;;;;;;;;5.00;5.00;;;;;10.40;43.52;100359.66;5075488;27;45494;-63
2022/04/11 07:45:20;;;;;;;;;5.00;5.00;;;;;10.46;44.22;100366.44;5075844;27;45466;-64
2022/04/11 07:47:45;;;;;;;;;4.25;4.25;;;;;10.50;43.22;100370.66;5075923;27;45624;-64
2022/04/11 07:50:11;;;;;;;;;8.25;8.25;;;;;10.48;43.27;100369.88;5075320;27;46177;-64
2022/04/11 07:52:37;;;;;;;;;8.00;6.00;;;;;10.51;43.70;100380.25;5075609;28;45425;-63
2022/04/11 07:55:04;;;;;;;;;5.00;5.00;;;;;10.54;43.66;100372.25;5075589;27;45409;-63
2022/04/11 07:57:29;;;;;;;;;8.00;8.00;;;;;10.53;43.76;100360.00;5075174;27;45400;-65
2022/04/11 07:59:54;;;;;;;;;5.00;5.00;;;;;10.62;44.15;100359.66;5074799;27;53327;-65
2022/04/11 08:02:24;;;;;;;;;5.00;5.00;;;;;10.69;43.63;100360.25;5075320;27;45452;-65
2022/04/11 08:04:49;;;;;;;;;8.25;8.25;;;;;10.70;43.84;100347.06;5075433;27;45473;-63
2022/04/11 08:07:15;;;;;;;;;7.25;6.00;;;;;10.78;43.76;100357.28;5074666;27;45551;-63
2022/04/11 08:09:40;;;;;;;;;4.33;4.33;;;;;10.76;43.39;100344.19;5075134;27;46297;-65
2022/04/11 08:12:06;;;;;;;;;5.00;4.33;;;;;10.79;43.59;100344.03;5075043;27;45427;-69
2022/04/11 08:14:32;;;;;;;;;5.00;5.00;;;;;10.77;43.54;100335.38;5075316;27;45522;-64
2022/04/11 08:17:02;;;;;;;;;4.00;4.00;;;;;10.83;43.24;100339.53;5075183;27;45537;-64
2022/04/11 08:19:28;;;;;;;;;6.67;6.67;;;;;10.86;43.39;100346.44;5075013;27;45519;-66
2022/04/11 08:21:53;;;;;;;;;9.00;8.00;;;;;10.89;43.45;100341.06;5074795;27;45520;-62
2022/04/11 08:24:18;;;;;;;;;7.33;7.33;;;;;10.92;43.23;100343.56;5075084;27;45522;-62
2022/04/11 08:26:44;;;;;;;;;5.67;5.00;;;;;10.94;43.04;100349.63;5074984;27;45642;-63
2022/04/11 08:29:09;;;;;;;;;7.67;7.67;;;;;10.97;43.72;100339.81;5073501;28;46908;-64
2022/04/11 08:31:34;;;;;;;;;7.00;7.00;;;;;11.03;43.75;100336.06;5074923;27;45434;-65
2022/04/11 08:34:00;;;;;;;;;4.00;4.00;;;;;11.02;43.67;100331.75;5074958;27;45509;-63
2022/04/11 08:36:25;;;;;;;;;5.67;5.67;;;;;11.10;43.56;100349.84;5074930;27;45481;-65
2022/04/11 08:38:52;;;;;;;;;6.67;6.67;;;;;11.11;42.81;100339.25;5073357;28;46961;-62
2022/04/11 08:41:18;;;;;;;;;5.00;4.33;;;;;11.13;43.46;100333.94;5074721;27;45493;-62
2022/04/11 08:43:44;;;;;;;;;46.00;37.75;;;;;11.07;43.55;100311.34;5074769;28;45404;-64
2022/04/11 08:46:13;;;;;;;;;5.33;5.33;;;;;11.18;43.77;100324.06;5074851;28;45632;-64
2022/04/11 08:48:40;;;;;;;;;9.00;5.00;;;;;11.24;44.01;100321.16;5074652;27;46381;-63
2022/04/11 08:51:06;;;;;;;;;5.00;4.67;;;;;11.27;43.89;100310.50;5074818;27;45515;-62
2022/04/11 08:53:32;;;;;;;;;7.67;6.67;;;;;11.26;43.73;100296.50;5074709;27;45461;-67
2022/04/11 08:55:57;;;;;;;;;3.33;3.33;;;;;11.36;44.02;100307.47;5074951;28;45359;-63
2022/04/11 08:58:23;;;;;;;;;5.00;5.00;;;;;11.40;43.24;100306.41;5074365;27;46001;-64
2022/04/11 09:00:48;;;;;;;;;4.00;4.00;;;;;11.42;43.43;100288.78;5074293;27;45879;-65
2022/04/11 09:03:13;;;;;;;;;5.00;5.00;;;;;11.52;43.69;100293.63;5074656;27;45474;-63
2022/04/11 09:05:39;;;;;;;;;4.00;4.00;;;;;11.59;43.37;100292.44;5074515;27;45598;-64
2022/04/11 09:08:04;;;;;;;;;5.00;4.00;;;;;11.66;43.63;100289.47;5074231;27;46274;-66
2022/04/11 09:10:32;;;;;;;;;8.00;5.67;;;;;11.71;43.23;100284.84;5074542;27;45430;-64
2022/04/11 09:13:03;;;;;;;;;5.00;5.00;;;;;11.69;43.50;100270.91;5074376;27;45497;-64
2022/04/11 09:15:38;;;;;;;;;5.00;4.67;;;;;11.85;42.61;100286.03;5074232;27;45608;-63
2022/04/11 09:18:03;;;;;;;;;5.00;4.00;;;;;11.87;43.70;100271.84;5074262;27;45430;-64
2022/04/11 09:20:30;;;;;;;;;5.00;4.00;;;;;11.98;42.83;100291.59;5076002;27;45426;-64
2022/04/11 09:22:56;;;;;;;;;4.00;4.00;;;;;12.03;42.12;100286.97;5077678;27;45458;-63
2022/04/11 09:25:23;;;;;;;;;9.33;6.33;;;;;12.06;42.59;100282.44;5077707;27;45481;-65
2022/04/11 09:28:04;;;;;;;;;4.67;4.67;;;;;12.08;42.08;100275.28;5077577;28;45441;-64
2022/04/11 09:30:32;;;;;;;;;4.67;4.67;;;;;12.15;43.10;100267.94;5077970;27;45406;-64
2022/04/11 09:32:58;;;;;;;;;4.00;4.00;;;;;12.22;42.86;100265.88;5077830;27;45498;-63
2022/04/11 09:35:27;;;;;;;;;8.00;5.00;;;;;12.26;42.28;100265.66;5076295;28;45505;-65
2022/04/11 09:38:13;;;;;;;;;4.67;3.67;;;;;12.32;42.09;100269.78;5077677;27;45542;-63
2022/04/11 09:40:39;;;;;;;;;5.00;4.00;;;;;12.35;41.33;100261.72;5077743;27;45631;-62
2022/04/11 09:43:05;;;;;;;;;3.00;3.00;;;;;12.38;41.60;100269.47;5077706;27;45539;-65
2022/04/11 09:45:30;;;;;;;;;3.33;3.33;;;;;12.44;41.42;100260.41;5077542;27;45601;-65
2022/04/11 09:48:04;;;;;;;;;4.00;4.00;;;;;12.49;42.16;100256.66;5077570;27;45850;-63
2022/04/11 09:50:32;;;;;;;;;2.33;2.33;;;;;12.55;42.02;100258.97;5077579;27;45418;-66
2022/04/11 09:53:15;;;;;;;;;3.67;3.67;;;;;12.59;41.57;100260.53;5077445;27;45462;-64
2022/04/11 09:55:43;;;;;;;;;4.00;2.33;;;;;12.65;41.77;100246.16;5077156;27;45448;-65
2022/04/11 09:58:09;;;;;;;;;4.33;4.33;;;;;12.68;41.48;100251.31;5077154;27;45482;-66
2022/04/11 10:00:37;;;;;;;;;3.00;3.00;;;;;12.72;41.19;100252.00;5077183;27;45600;-64
2022/04/11 10:03:05;;;;;;;;;2.67;2.67;;;;;12.70;41.20;100254.72;5077117;27;45459;-64
2022/04/11 10:05:35;;;;;;;;;4.67;4.67;;;;;12.77;41.47;100253.50;5077089;27;45362;-62
2022/04/11 10:08:03;;;;;;;;;8.00;7.00;;;;;12.73;41.28;100238.72;5076768;28;45507;-63
2022/04/11 10:10:29;;;;;;;;;4.00;4.00;;;;;12.73;41.08;100228.16;5077001;27;45413;-65
2022/04/11 10:12:57;;;;;;;;;4.00;4.00;;;;;12.87;41.23;100248.63;5075755;28;45405;-62
2022/04/11 10:15:23;;;;;;;;;4.00;4.00;;;;;12.92;41.27;100257.16;5075495;28;45505;-64
2022/04/11 10:17:50;;;;;;;;;3.33;3.33;;;;;12.95;40.35;100253.47;5076711;27;45504;-63
2022/04/11 10:20:30;;;;;;;;;5.00;3.00;;;;;12.97;40.71;100249.84;5076692;27;45490;-65
2022/04/11 10:23:02;;;;;;;;;10.67;7.00;;;;;12.98;41.37;100240.16;5075352;28;45371;-63
2022/04/11 10:25:31;;;;;;;;;6.33;6.00;;;;;13.08;41.00;100245.78;5076850;27;45475;-63
2022/04/11 10:28:15;;;;;;;;;2.67;2.67;;;;;13.16;41.71;100239.19;5076502;27;46288;-65
2022/04/11 10:30:42;;;;;;;;;4.00;4.00;;;;;13.21;41.79;100239.78;5076198;28;45469;-66
2022/04/11 10:33:07;;;;;;;;;7.00;6.00;;;;;13.28;41.12;100228.97;5076510;28;45414;-65
2022/04/11 10:35:44;;;;;;;;;7.33;6.33;;;;;13.38;42.00;100225.75;5076094;27;45323;-62
2022/04/11 10:38:12;;;;;;;;;5.00;5.00;;;;;13.42;41.40;100222.00;5076490;27;45465;-66
2022/04/11 10:40:47;;;;;;;;;5.33;4.00;;;;;13.45;41.29;100210.41;5076283;27;45465;-65
2022/04/11 10:43:14;;;;;;;;;5.00;3.00;;;;;13.56;40.65;100215.97;5076195;27;45480;-62
2022/04/11 10:45:45;;;;;;;;;8.67;7.00;;;;;13.57;41.07;100209.78;5076022;28;45465;-67
2022/04/11 10:48:12;;;;;;;;;4.00;4.00;;;;;13.62;41.10;100206.88;5076297;27;45997;-64
2022/04/11 10:50:39;;;;;;;;;6.00;5.00;;;;;13.64;41.12;100205.84;5075928;28;45453;-64
2022/04/11 10:53:09;;;;;;;;;8.33;8.33;;;;;13.65;41.07;100198.78;5076094;27;45401;-63
2022/04/11 10:55:35;;;;;;;;;6.00;5.00;;;;;13.71;41.56;100203.75;5074504;28;45456;-66
2022/04/11 10:58:01;;;;;;;;;4.00;4.00;;;;;13.74;41.60;100205.38;5075726;27;46132;-64
2022/04/11 11:00:31;;;;;;;;;5.33;5.00;;;;;13.73;41.35;100206.28;5075841;27;45664;-61
2022/04/11 11:02:57;;;;;;;;;7.33;5.00;;;;;13.72;41.68;100186.94;5076129;27;45441;-65
2022/04/11 11:05:36;;;;;;;;;5.00;5.00;;;;;13.75;41.41;100186.75;5075877;27;45437;-65
2022/04/11 11:08:09;;;;;;;;;3.67;3.67;;;;;13.79;41.05;100183.03;5075881;27;45464;-66
2022/04/11 11:10:57;;;;;;;;;4.00;4.00;;;;;13.82;41.40;100189.94;5075612;28;45618;-66
2022/04/11 11:13:34;;;;;;;;;5.00;5.00;;;;;13.82;40.89;100180.22;5075479;27;45522;-63
2022/04/11 11:16:11;;;;;;;;;4.67;4.67;;;;;13.84;40.99;100183.63;5075450;28;45545;-65
2022/04/11 11:18:55;;;;;;;;;5.50;5.00;;;;;13.90;41.54;100188.56;5075422;27;46088;-63
2022/04/11 11:21:44;;;;;;;;;3.00;3.00;;;;;13.89;41.84;100180.72;5075285;27;45426;-64
2022/04/11 11:24:12;;;;;;;;;5.00;4.00;;;;;13.99;41.59;100199.56;5071719;27;45750;-62